Create Tblcommutelog Verified Points Advance Search
| # | Trip ID | Id Commuter | Trip Date | Trip Num | Current Lat | Current Lng | Delta Distance | Current Time | Activity | Activity Confidence | Current Speed | |
|---|---|---|---|---|---|---|---|---|---|---|---|---|
| 69041 | 250324_753800_6439769_0815 | 753800 | (not set) | (not set) | 38.8995673612 | -77.003592009903 | 2.745 | 2025-03-24 12:33:55.287 | still | 33 | 2.4542455318426 | |
| 69042 | 250324_780947_6461772_0743 | 780947 | (not set) | (not set) | 38.898102010923 | -77.027883874498 | 4.7555 | 2025-03-24 12:33:55.606 | in_vehicle | 100 | -0.44703925898772 | |
| 69043 | 250324_780789_16421763_0747 | 780789 | (not set) | (not set) | 38.872039177025 | -77.292462975592 | 27.506 | 2025-03-24 12:33:57.172 | unknown | 100 | 14.028091947035 | |
| 69044 | 250324_781766_16459526_0806 | 781766 | (not set) | (not set) | 38.944415670181 | -77.256856496554 | 15.5998 | 2025-03-24 12:33:59.402 | in_vehicle | 100 | 7.9215356692625 | |
| 69045 | 250324_777589_16507005_0801 | 777589 | (not set) | (not set) | 38.884051384721 | -77.062709204909 | 11.4585 | 2025-03-24 12:33:59.502 | in_vehicle | 100 | 3.6567811385196 | |
| 69046 | 250324_780745_16421763_0755 | 780745 | (not set) | (not set) | 38.952471941416 | -77.383738665865 | 17.9862 | 2025-03-24 12:34:01.212 | in_vehicle | 100 | 12.584155140504 | |
| 69047 | 250324_775454_16511572_0826 | 775454 | (not set) | (not set) | 39.123875413922 | -77.161423152289 | 0.381 | 2025-03-24 12:34:01.413 | on_foot | 100 | 0.49621357747637 | |
| 69048 | 250324_780682_16421763_0824 | 780682 | (not set) | (not set) | 38.908014915703 | -77.045045479428 | 1.705 | 2025-03-24 12:34:02.558 | on_bicycle | 100 | 2.8610512575214 | |
| 69049 | 250324_780998_16415274_0831 | 780998 | (not set) | (not set) | 39.062452896244 | -77.201667698891 | 0.9481 | 2025-03-24 12:34:07.198 | in_vehicle | 100 | 6.0260892111545 | |
| 69050 | 250324_673172_16462601_0804 | 673172 | (not set) | (not set) | 39.034845355373 | -77.105885856231 | 5.5578 | 2025-03-24 12:34:07.334 | unknown | 100 | 4.9353134192245 | |
| 69051 | 250324_780826_6461772_0821 | 780826 | (not set) | (not set) | 38.875393888419 | -77.057352754569 | 1.2866 | 2025-03-24 12:34:07.517 | on_bicycle | 100 | 2.5168310281009 | |
| 69052 | 250324_780789_16421763_0747 | 780789 | (not set) | (not set) | 38.87323315486 | -77.288440562025 | 27.7381 | 2025-03-24 12:34:09.205 | unknown | 100 | 13.889509776749 | |
| 69053 | 250324_782142_16511399_0820 | 782142 | (not set) | (not set) | 38.899672656945 | -77.182269086963 | 4.6203 | 2025-03-24 12:34:10.034 | in_vehicle | 100 | 8.2881078616324 | |
| 69054 | 250324_782142_16511399_0820 | 782142 | (not set) | (not set) | 38.898323749732 | -77.178396997889 | 4.3917 | 2025-03-24 12:34:11.895 | in_vehicle | 100 | 5.4494085670604 | |
| 69055 | 250324_770680_16457490_0801 | 770680 | (not set) | (not set) | 38.877886521962 | -77.246636967887 | 0 | 2025-03-24 12:34:11.983 | in_vehicle | 100 | -0.44703925898772 | |
| 69056 | 250324_775454_16511572_0826 | 775454 | (not set) | (not set) | 39.123872939295 | -77.161588406649 | 0.3899 | 2025-03-24 12:34:12.324 | on_foot | 100 | 0.52303593301564 | |
| 69057 | 250324_753800_6439769_0815 | 753800 | (not set) | (not set) | 38.900502731974 | -77.003560320051 | 2.8095 | 2025-03-24 12:34:13.265 | still | 33 | 0.80020027358803 | |
| 69058 | 250324_780947_6461772_0743 | 780947 | (not set) | (not set) | 38.898373266032 | -77.028001332362 | 4.7555 | 2025-03-24 12:34:13.597 | still | 100 | -0.44703925898772 | |
| 69059 | 250324_776833_16512111_0832 | 776833 | (not set) | (not set) | 38.970159263111 | -76.942310786334 | 0.2482 | 2025-03-24 12:34:14.229 | in_vehicle | 100 | 2.5570645614098 | |
| 69060 | 250324_780745_16421763_0755 | 780745 | (not set) | (not set) | 38.952591774747 | -77.37947455462 | 18.2161 | 2025-03-24 12:34:14.262 | in_vehicle | 100 | 12.73614848856 |